Santa Ana, CA

12:43 AM PST on March 06, 2015 (GMT -0800)
Los Alamitos Army Air Field | Change Station
CLOSE
Current Station
Airport
Location: Los Alamitos,
Elevation: 36 ft
Nearby Weather Stations
Active Advisory: Wind Advisory

Elev 36 ft 33.79 °N, 118.05 °W | Updated 45 minutes ago

Clear
Clear
52 °F
Feels Like 52 °F
N
6
Wind Variable Wind from NNW

Today
High -- | Low -- °F
--% Chance of Precip.
Yesterday
High -- | Low -- °F
Precip. -- in
6:13 AM 5:51 PM
Full, 100% visible
Pressure 30.15 in
Visibility 10.0 miles
Clouds Clear
Dew Point 32 °F
Humidity 46%
Rainfall 0.00 in
Snow Depth Not available.
UV 0 out of 12
Pollen 9.10 out of 12
Air Quality Not available.
Flu Activity Not available.
METAR KSLI 060758Z AUTO 33005KT 10SM CLR 11/00 A3014 RMK AO2 SLP209 T01130000 402620054

More Conditions Fewer Conditions

Pressure 30.15 in
Visibility 10.0 miles
Clouds Clear
Dew Point 32 °F
Humidity 46%
Rainfall 0.00 in
Snow Depth Not available.
UV 0 out of 12
Pollen 9.10 out of 12
Air Quality Not available.
Flu Activity Not available.
METAR KSLI 060758Z AUTO 33005KT 10SM CLR 11/00 A3014 RMK AO2 SLP209 T01130000 402620054

More Conditions Fewer Conditions

10-Day Weather Forecast

Almanac

Astronomy

Mar. 06, 2015 Rise Set
Actual Time
Civil Twilight
Nautical Twilight
Astronomical Twilight
Moon
Length of Visible Light
Length of Day
Tomorrow will be .
, % of the Moon is Illuminated

Today's Extremes

State Highs State Lows

Community

WunderPhotos

Upload Photos

1,803,211 photos uploaded!

WunderBlogs® & News

Nearby

Air Quality

  Air Quality AQ Index Pollutant
Not available.

Snow Depth

Station Depth Elevation

Earthquake Activity

City Distance Mag. Time & Date
Minimum magnitude displayed is 2.5.

Coastal Water Temperatures

Place Temperature

Nearby Weather Stations

Wind Advisory
Statement as of 9:37 PM PST on March 05, 2015

... Wind Advisory remains in effect until 4 PM PST Friday...

* winds... northeast to east at 20 to 30 mph with gusts to 50
mph... locally higher.

* Timing... this evening through Friday afternoon.

* Locations... inland Orange County... the inland Empire... San
Diego County valleys.

* Impacts... strong winds will make driving difficult for high
profile vehicles.

* Outlook... offshore winds will gradually diminish Friday
evening through the weekend... though remain somewhat gusty.

Precautionary/preparedness actions...

A Wind Advisory means that winds of 35 mph are expected. Winds
this strong can make driving difficult... especially for high
profile vehicles. Use extra caution.



Maxwell